RJTR(METAR)
03/23 13:58
METAR RJTR 230458Z AUTO 25004KT 10SM CLR 13/M01 A2995 RMK AO2 SLP146
T01251011 $=
戻る
トップページへ戻る
IMOC Co,.Ltd.